createdAt,value
2022-08-21T00:02:02.809Z,13.57
2022-08-21T00:04:57.725Z,17.83
2022-08-21T00:07:43.737Z,12.20
2022-08-21T00:10:29.654Z,16.05
2022-08-21T00:13:16.919Z,17.73
2022-08-21T00:16:05.558Z,16.48
2022-08-21T00:18:51.340Z,18.17
2022-08-21T00:21:37.652Z,14.73
2022-08-21T00:24:24.902Z,13.80
2022-08-21T00:27:10.994Z,14.13
2022-08-21T00:29:57.061Z,17.20
2022-08-21T00:32:43.558Z,20.05
2022-08-21T00:35:34.167Z,12.82
2022-08-21T00:38:20.121Z,14.23
2022-08-21T00:41:29.865Z,15.68
2022-08-21T00:44:15.536Z,15.55
2022-08-21T00:47:01.547Z,12.70
2022-08-21T00:49:47.340Z,14.23
2022-08-21T00:52:35.200Z,16.30
2022-08-21T00:55:23.473Z,12.10
2022-08-21T00:58:11.330Z,15.68
2022-08-21T01:00:57.466Z,13.75
2022-08-21T01:03:44.124Z,13.20
2022-08-21T01:06:31.646Z,21.77
2022-08-21T01:09:17.617Z,16.10
2022-08-21T01:12:04.530Z,16.20
2022-08-21T01:14:50.529Z,15.73
2022-08-21T01:17:36.871Z,18.45
2022-08-21T01:20:32.183Z,14.52
2022-08-21T01:23:18.516Z,15.52
2022-08-21T01:26:04.849Z,15.05
2022-08-21T01:28:57.840Z,19.75
2022-08-21T01:31:44.294Z,15.55
2022-08-21T01:34:30.274Z,19.65
2022-08-21T01:37:17.893Z,16.98
2022-08-21T01:40:05.776Z,13.63
2022-08-21T01:42:52.193Z,12.32
2022-08-21T01:45:38.453Z,11.45
2022-08-21T01:48:24.621Z,17.33
2022-08-21T01:51:10.954Z,16.77
2022-08-21T01:53:56.732Z,17.77
2022-08-21T01:56:48.085Z,17.50
2022-08-21T01:59:35.585Z,28.75
2022-08-21T02:02:21.826Z,21.27
2022-08-21T02:05:09.345Z,25.88
2022-08-21T02:07:56.506Z,22.65
2022-08-21T02:10:42.377Z,31.00
2022-08-21T02:13:34.876Z,24.35
2022-08-21T02:16:20.922Z,19.85
2022-08-21T02:19:08.300Z,20.65
2022-08-21T02:21:54.210Z,22.48
2022-08-21T02:24:54.801Z,24.23
2022-08-21T02:27:43.627Z,19.85
2022-08-21T02:30:35.116Z,24.63
2022-08-21T02:33:21.243Z,23.73
2022-08-21T02:36:08.845Z,21.42
2022-08-21T02:38:55.129Z,24.77
2022-08-21T02:41:41.262Z,25.95
2022-08-21T02:44:34.262Z,19.13
2022-08-21T02:47:21.017Z,21.30
2022-08-21T02:50:08.661Z,22.10
2022-08-21T02:52:55.459Z,22.42
2022-08-21T02:55:41.771Z,31.92
2022-08-21T02:58:34.204Z,25.48
2022-08-21T03:01:21.442Z,24.60
2022-08-21T03:04:07.258Z,20.85
2022-08-21T03:06:53.310Z,27.00
2022-08-21T03:09:39.450Z,27.42
2022-08-21T03:12:37.284Z,21.88
2022-08-21T03:15:24.839Z,18.73
2022-08-21T03:18:11.823Z,23.42
2022-08-21T03:20:58.096Z,17.95
2022-08-21T03:23:43.998Z,22.77
2022-08-21T03:26:30.492Z,21.58
2022-08-21T03:29:17.358Z,16.55
2022-08-21T03:32:03.386Z,19.70
2022-08-21T03:34:49.725Z,18.38
2022-08-21T03:37:35.732Z,21.05
2022-08-21T03:40:23.529Z,18.75
2022-08-21T03:43:10.581Z,18.27
2022-08-21T03:45:56.985Z,24.20
2022-08-21T03:48:42.749Z,27.98
2022-08-21T03:51:28.732Z,20.23
2022-08-21T03:54:14.764Z,25.40
2022-08-21T03:57:01.041Z,30.52
2022-08-21T03:59:47.879Z,21.52
2022-08-21T04:02:34.397Z,24.27
2022-08-21T04:05:31.133Z,27.92
2022-08-21T04:08:21.092Z,25.45
2022-08-21T04:11:07.394Z,28.40
2022-08-21T04:13:53.592Z,32.95
2022-08-21T04:16:39.507Z,21.98
2022-08-21T04:19:25.385Z,26.45
2022-08-21T04:22:11.597Z,26.02
2022-08-21T04:24:57.641Z,23.50
2022-08-21T04:27:43.681Z,23.95
2022-08-21T04:30:32.667Z,23.05
2022-08-21T04:33:18.750Z,23.35
2022-08-21T04:36:05.942Z,26.85
2022-08-21T04:38:51.854Z,33.40
2022-08-21T04:41:38.699Z,23.98
2022-08-21T04:44:24.835Z,28.40
2022-08-21T04:47:10.822Z,28.52
2022-08-21T04:49:56.629Z,24.40
2022-08-21T04:52:42.706Z,22.08
2022-08-21T04:55:29.493Z,21.45
2022-08-21T04:58:18.445Z,21.05
2022-08-21T05:01:05.939Z,20.08
2022-08-21T05:03:54.697Z,20.42
2022-08-21T05:06:43.055Z,20.13
2022-08-21T05:09:29.434Z,24.80
2022-08-21T05:12:15.596Z,21.85
2022-08-21T05:15:01.865Z,22.48
2022-08-21T05:17:55.451Z,23.02
2022-08-21T05:20:47.292Z,26.08
2022-08-21T05:23:33.744Z,23.13
2022-08-21T05:26:19.660Z,25.20
2022-08-21T05:29:11.802Z,24.50
2022-08-21T05:31:59.242Z,28.00
2022-08-21T05:34:45.126Z,31.45
2022-08-21T05:37:30.962Z,26.35
2022-08-21T05:40:22.308Z,29.08
2022-08-21T05:45:55.000Z,30.67
2022-08-21T06:10:12.073Z,40.00
2022-08-21T06:12:58.093Z,35.45
2022-08-21T06:15:44.741Z,35.53
2022-08-21T06:18:30.714Z,42.72
2022-08-21T06:21:17.140Z,41.58
2022-08-21T06:24:03.228Z,39.67
2022-08-21T06:26:49.346Z,38.90
2022-08-21T06:29:44.380Z,35.65
2022-08-21T06:32:30.785Z,39.80
2022-08-21T06:35:16.593Z,40.97
2022-08-21T06:38:03.356Z,35.72
2022-08-21T06:40:49.520Z,36.53
2022-08-21T06:43:39.895Z,32.80
2022-08-21T06:46:27.929Z,33.08
2022-08-21T06:49:17.510Z,35.15
2022-08-21T06:52:12.241Z,36.50
2022-08-21T06:54:58.492Z,34.45
2022-08-21T06:57:47.909Z,26.23
2022-08-21T07:00:43.967Z,29.70
2022-08-21T07:03:41.223Z,28.65
2022-08-21T07:06:27.049Z,29.13
2022-08-21T07:09:13.646Z,29.05
2022-08-21T07:11:59.764Z,30.48
2022-08-21T07:14:45.953Z,27.00
2022-08-21T07:17:31.793Z,28.67
2022-08-21T07:20:17.916Z,26.85
2022-08-21T07:23:09.726Z,27.38
2022-08-21T07:25:55.941Z,26.02
2022-08-21T07:28:42.582Z,21.73
2022-08-21T07:31:29.033Z,21.98
2022-08-21T07:34:15.638Z,20.70
2022-08-21T07:37:09.855Z,20.83
2022-08-21T07:39:56.093Z,20.23
2022-08-21T07:42:43.785Z,17.30
2022-08-21T07:45:30.549Z,17.88
2022-08-21T07:48:17.223Z,21.05
2022-08-21T07:51:07.597Z,19.58
2022-08-21T07:53:55.258Z,18.40
2022-08-21T07:56:41.431Z,17.63
2022-08-21T07:59:27.366Z,19.05
2022-08-21T08:02:34.480Z,13.77
2022-08-21T08:05:26.045Z,19.17
2022-08-21T08:08:12.153Z,19.48
2022-08-21T08:10:59.324Z,17.88
2022-08-21T08:13:47.961Z,19.90
2022-08-21T08:16:34.177Z,18.98
2022-08-21T08:19:20.169Z,16.73
2022-08-21T08:22:26.342Z,19.80
2022-08-21T08:25:14.617Z,23.08
2022-08-21T08:28:00.786Z,17.02
2022-08-21T08:30:47.494Z,21.38
2022-08-21T08:33:33.303Z,18.63
2022-08-21T08:36:20.098Z,17.40
2022-08-21T08:39:06.408Z,17.58
2022-08-21T08:42:32.043Z,19.35
2022-08-21T08:45:25.328Z,17.80
2022-08-21T08:48:14.744Z,15.30
2022-08-21T08:51:02.157Z,16.50
2022-08-21T08:53:55.940Z,18.98
2022-08-21T08:56:41.761Z,17.83
2022-08-21T08:59:31.530Z,16.92
2022-08-21T09:02:18.347Z,18.00
2022-08-21T10:04:24.400Z,13.55
2022-08-21T10:07:12.300Z,15.30
2022-08-21T10:10:15.068Z,18.30
2022-08-21T10:13:10.177Z,16.83
2022-08-21T10:16:17.342Z,18.98
2022-08-21T10:19:40.771Z,12.15
2022-08-21T10:22:51.895Z,15.27
2022-08-21T10:26:14.298Z,15.25
2022-08-21T10:29:39.262Z,13.50
2022-08-21T10:32:29.047Z,12.30
2022-08-21T10:35:38.285Z,13.13
2022-08-21T10:39:23.413Z,13.75
2022-08-21T10:42:07.737Z,15.98
2022-08-21T10:45:14.481Z,11.52
2022-08-21T10:48:09.834Z,14.82
2022-08-21T10:54:25.042Z,14.45
2022-08-21T10:57:32.276Z,10.35
2022-08-21T11:00:23.976Z,11.48
2022-08-21T11:03:10.089Z,14.70
2022-08-21T11:06:00.890Z,17.40
2022-08-21T11:08:52.305Z,10.85
2022-08-21T11:11:59.138Z,11.53
2022-08-21T11:15:28.689Z,13.98
2022-08-21T11:18:21.549Z,9.35
2022-08-21T11:21:40.654Z,11.13
2022-08-21T11:24:29.461Z,10.98
2022-08-21T11:27:26.300Z,11.52
2022-08-21T11:30:13.481Z,9.43
2022-08-21T11:33:24.267Z,10.43
2022-08-21T11:36:19.781Z,9.00
2022-08-21T11:39:05.648Z,10.43
2022-08-21T11:42:07.038Z,10.90
2022-08-21T11:45:28.168Z,9.70
2022-08-21T11:48:33.597Z,10.88
2022-08-21T11:51:29.922Z,11.30
2022-08-21T11:54:35.196Z,10.63
2022-08-21T11:57:30.051Z,8.90
2022-08-21T12:00:30.844Z,10.10
2022-08-21T12:03:34.825Z,9.07
2022-08-21T12:06:31.818Z,11.43
2022-08-21T12:09:26.941Z,13.75
2022-08-21T12:12:45.438Z,11.63
2022-08-21T12:15:31.392Z,9.55
2022-08-21T12:18:44.187Z,9.32
2022-08-21T12:21:29.952Z,8.45
2022-08-21T12:24:15.907Z,11.18
2022-08-21T12:27:31.236Z,7.82
2022-08-21T12:30:35.538Z,8.30
2022-08-21T12:33:38.753Z,9.48
2022-08-21T12:36:29.406Z,9.95
2022-08-21T12:39:22.232Z,11.35
2022-08-21T12:42:20.424Z,9.02
2022-08-21T12:45:19.129Z,9.60
2022-08-21T12:48:14.623Z,10.30
2022-08-21T12:51:49.845Z,10.05
2022-08-21T12:54:42.648Z,11.23
2022-08-21T12:57:31.003Z,9.48
2022-08-21T13:00:23.227Z,8.20
2022-08-21T13:03:09.893Z,8.80
2022-08-21T13:05:56.075Z,9.48
2022-08-21T13:08:47.246Z,8.05
2022-08-21T13:11:34.240Z,10.63
2022-08-21T13:14:45.216Z,11.60
2022-08-21T13:17:35.743Z,7.13
2022-08-21T13:20:29.051Z,7.95
2022-08-21T13:23:27.705Z,5.93
2022-08-21T13:26:21.977Z,6.13
2022-08-21T13:29:13.476Z,4.85
2022-08-21T13:32:03.619Z,4.28
2022-08-21T13:34:51.421Z,5.20
2022-08-21T13:37:42.577Z,6.40
2022-08-21T13:40:41.130Z,8.10
2022-08-21T13:43:31.611Z,8.68
2022-08-21T13:46:19.772Z,6.60
2022-08-21T13:49:07.568Z,5.63
2022-08-21T13:51:54.034Z,5.03
2022-08-21T13:54:45.975Z,4.43
2022-08-21T13:57:34.761Z,5.97
2022-08-21T14:00:28.081Z,3.85
2022-08-21T14:03:30.233Z,6.03
2022-08-21T14:06:23.090Z,5.13
2022-08-21T14:09:32.156Z,2.70
2022-08-21T14:12:25.846Z,2.03
2022-08-21T14:15:16.208Z,2.88
2022-08-21T14:18:17.673Z,2.90
2022-08-21T14:21:08.249Z,4.22
2022-08-21T14:24:04.689Z,5.00
2022-08-21T14:26:57.338Z,2.22
2022-08-21T14:29:44.988Z,1.95
2022-08-21T14:32:39.158Z,3.60
2022-08-21T14:35:32.493Z,4.07
2022-08-21T14:38:21.229Z,2.28
2022-08-21T14:41:17.788Z,4.05
2022-08-21T14:44:09.364Z,2.60
2022-08-21T14:46:57.223Z,2.92
2022-08-21T14:49:43.819Z,3.67
2022-08-21T14:52:29.904Z,3.90
2022-08-21T14:55:17.068Z,3.92
2022-08-21T14:58:03.402Z,6.07
2022-08-21T15:00:54.214Z,3.70
2022-08-21T15:03:40.806Z,4.35
2022-08-21T15:06:27.039Z,1.60
2022-08-21T15:09:13.495Z,2.25
2022-08-21T15:12:01.673Z,2.60
2022-08-21T15:14:48.478Z,1.60
2022-08-21T15:17:35.362Z,1.77
2022-08-21T15:20:21.987Z,2.60
2022-08-21T15:23:13.070Z,3.90
2022-08-21T15:26:01.114Z,5.10
2022-08-21T15:28:48.500Z,6.18
2022-08-21T15:31:36.156Z,3.65
2022-08-21T15:34:27.100Z,3.85
2022-08-21T15:37:13.721Z,2.17
2022-08-21T15:40:00.462Z,2.30
2022-08-21T15:42:47.867Z,2.28
2022-08-21T15:45:35.304Z,1.70
2022-08-21T15:48:22.809Z,3.50
2022-08-21T15:51:12.585Z,2.35
2022-08-21T15:54:00.055Z,1.95
2022-08-21T15:56:50.984Z,2.25
2022-08-21T15:59:49.478Z,5.20
2022-08-21T16:02:36.292Z,2.83
2022-08-21T16:05:23.542Z,3.28
2022-08-21T16:08:11.818Z,5.90
2022-08-21T16:10:58.106Z,3.13
2022-08-21T16:13:45.840Z,5.20
2022-08-21T16:16:34.913Z,5.03
2022-08-21T16:19:21.981Z,6.82
2022-08-21T16:22:08.051Z,3.95
2022-08-21T16:24:54.295Z,5.63
2022-08-21T16:27:41.377Z,3.20
2022-08-21T16:30:31.073Z,3.30
2022-08-21T16:33:25.903Z,2.22
2022-08-21T16:36:13.184Z,5.82
2022-08-21T16:39:01.128Z,8.00
2022-08-21T16:41:49.646Z,7.45
2022-08-21T16:44:35.569Z,3.35
2022-08-21T16:47:27.076Z,5.75
2022-08-21T16:50:16.575Z,4.97
2022-08-21T16:53:02.585Z,3.40
2022-08-21T16:55:48.655Z,4.60
2022-08-21T16:58:37.769Z,5.35
2022-08-21T18:02:20.155Z,8.48
2022-08-21T18:05:08.993Z,6.72
2022-08-21T18:07:55.692Z,8.40
2022-08-21T18:10:45.011Z,11.93
2022-08-21T18:13:33.538Z,6.88
2022-08-21T18:16:20.201Z,6.10
2022-08-21T18:19:10.263Z,5.68
2022-08-21T18:21:58.814Z,5.53
2022-08-21T18:24:47.812Z,5.97
2022-08-21T18:27:34.080Z,6.82
2022-08-21T18:30:23.088Z,6.30
2022-08-21T18:33:09.653Z,6.60
2022-08-21T18:35:55.978Z,11.57
2022-08-21T18:38:43.881Z,12.40
2022-08-21T18:41:29.852Z,7.57
2022-08-21T18:44:48.822Z,10.10
2022-08-21T18:47:42.279Z,12.95
2022-08-21T18:50:29.264Z,9.50
2022-08-21T18:53:24.179Z,10.23
2022-08-21T18:56:15.601Z,8.68
2022-08-21T18:59:04.271Z,8.48
2022-08-21T19:01:50.442Z,6.97
2022-08-21T19:04:44.212Z,6.50
2022-08-21T19:07:31.109Z,9.00
2022-08-21T19:10:24.668Z,9.65
2022-08-21T19:13:17.210Z,8.15
2022-08-21T19:16:03.846Z,11.88
2022-08-21T19:18:49.911Z,14.18
2022-08-21T19:21:36.815Z,15.65
2022-08-21T19:24:23.438Z,15.50
2022-08-21T19:27:10.998Z,12.25
2022-08-21T19:29:57.235Z,10.77
2022-08-21T19:32:45.365Z,10.10
2022-08-21T19:35:31.453Z,12.48
2022-08-21T19:38:17.472Z,9.55
2022-08-21T19:41:04.399Z,10.93
2022-08-21T19:43:54.030Z,14.88
2022-08-21T19:46:41.387Z,10.57
2022-08-21T19:49:32.069Z,12.43
2022-08-21T19:52:19.630Z,11.80
2022-08-21T19:55:08.753Z,15.60
2022-08-21T19:57:56.177Z,15.93
2022-08-21T20:00:44.162Z,13.60
2022-08-21T20:03:30.117Z,13.63
2022-08-21T20:06:18.118Z,13.80
2022-08-21T20:09:08.422Z,13.23
2022-08-21T20:11:57.661Z,18.30
2022-08-21T20:14:46.014Z,14.90
2022-08-21T20:17:31.883Z,17.55
2022-08-21T20:20:18.657Z,15.88
2022-08-21T20:23:10.644Z,14.63
2022-08-21T20:25:57.277Z,15.30
2022-08-21T20:28:43.597Z,17.65
2022-08-21T20:31:30.129Z,14.13
2022-08-21T20:34:16.152Z,20.10
2022-08-21T20:37:02.509Z,13.55
2022-08-21T20:39:51.405Z,14.93
2022-08-21T20:42:38.993Z,14.32
2022-08-21T20:45:31.037Z,15.73
2022-08-21T20:48:23.678Z,14.02
2022-08-21T20:51:21.352Z,11.30
2022-08-21T20:54:33.471Z,16.98
2022-08-21T20:57:30.640Z,13.90
2022-08-21T21:00:19.045Z,14.68
2022-08-21T21:03:10.669Z,16.10
2022-08-21T21:06:03.948Z,11.98
2022-08-21T21:09:11.893Z,13.95
2022-08-21T21:12:00.615Z,13.15
2022-08-21T21:14:52.572Z,12.07
2022-08-21T21:17:45.123Z,20.02
2022-08-21T21:20:46.166Z,13.35
2022-08-21T21:23:32.020Z,12.57
2022-08-21T21:26:29.328Z,16.55
2022-08-21T21:29:18.599Z,10.73
2022-08-21T21:32:05.988Z,12.43
2022-08-21T21:34:52.097Z,11.77
2022-08-21T21:38:03.577Z,11.70
2022-08-21T21:41:15.875Z,12.10
2022-08-21T21:44:13.923Z,11.85
2022-08-21T21:47:34.214Z,16.45
2022-08-21T21:50:42.799Z,15.10
2022-08-21T21:53:51.481Z,13.27
2022-08-21T21:56:57.252Z,11.10
2022-08-21T21:59:46.472Z,11.48
2022-08-21T22:06:37.756Z,11.73
2022-08-21T22:09:42.364Z,10.27
2022-08-21T22:12:56.681Z,12.98
2022-08-21T22:15:56.641Z,9.82
2022-08-21T22:19:07.450Z,11.52
2022-08-21T22:22:12.699Z,9.98
2022-08-21T22:25:04.569Z,11.43
2022-08-21T22:28:01.035Z,16.60
2022-08-21T22:30:54.813Z,13.98
2022-08-21T22:33:41.310Z,11.63
2022-08-21T22:36:31.929Z,9.52
2022-08-21T22:39:27.364Z,11.32
2022-08-21T22:42:25.402Z,10.63
2022-08-21T22:45:12.339Z,13.13
2022-08-21T22:48:05.460Z,10.93
2022-08-21T22:51:10.678Z,13.02
2022-08-21T22:53:56.993Z,10.60
2022-08-21T22:56:45.381Z,8.80
2022-08-21T22:59:40.078Z,10.55
2022-08-21T23:02:52.218Z,11.32
2022-08-21T23:05:38.541Z,8.38
2022-08-21T23:08:34.575Z,7.22
2022-08-21T23:11:39.836Z,14.05
2022-08-21T23:14:26.611Z,9.98
2022-08-21T23:17:49.665Z,11.88
2022-08-21T23:23:31.492Z,10.55
2022-08-21T23:26:26.970Z,7.18
2022-08-21T23:30:02.051Z,8.45
2022-08-21T23:33:04.292Z,10.15
2022-08-21T23:36:30.005Z,8.63
2022-08-21T23:42:18.573Z,14.68
2022-08-21T23:45:24.365Z,12.57
2022-08-21T23:48:46.419Z,11.32
2022-08-21T23:51:41.362Z,8.40
2022-08-21T23:55:04.890Z,11.88
2022-08-21T23:58:09.128Z,13.13
